sensor_id;sensor_type;location;lat;lon;timestamp;temperature;humidity
9808;DHT22;4943;52.550;13.462;2022-09-20T00:01:21;11.40;99.90
9808;DHT22;4943;52.550;13.462;2022-09-20T00:03:52;11.40;99.90
9808;DHT22;4943;52.550;13.462;2022-09-20T00:06:22;11.40;99.90
9808;DHT22;4943;52.550;13.462;2022-09-20T00:08:51;11.40;99.90
9808;DHT22;4943;52.550;13.462;2022-09-20T00:11:21;11.30;99.90
9808;DHT22;4943;52.550;13.462;2022-09-20T00:13:52;11.30;99.90
9808;DHT22;4943;52.550;13.462;2022-09-20T00:16:24;11.30;99.90
9808;DHT22;4943;52.550;13.462;2022-09-20T00:18:55;11.30;99.90
9808;DHT22;4943;52.550;13.462;2022-09-20T00:21:25;11.30;99.90
9808;DHT22;4943;52.550;13.462;2022-09-20T00:23:54;11.30;99.90
9808;DHT22;4943;52.550;13.462;2022-09-20T00:26:24;11.30;99.90
9808;DHT22;4943;52.550;13.462;2022-09-20T00:28:52;11.30;99.90
9808;DHT22;4943;52.550;13.462;2022-09-20T00:31:22;11.30;99.90
9808;DHT22;4943;52.550;13.462;2022-09-20T00:33:53;11.20;99.90
9808;DHT22;4943;52.550;13.462;2022-09-20T00:36:38;11.20;99.90
9808;DHT22;4943;52.550;13.462;2022-09-20T00:39:09;11.20;99.90
9808;DHT22;4943;52.550;13.462;2022-09-20T00:41:38;11.20;99.90
9808;DHT22;4943;52.550;13.462;2022-09-20T00:44:39;11.20;99.90
9808;DHT22;4943;52.550;13.462;2022-09-20T00:47:13;11.10;99.90
9808;DHT22;4943;52.550;13.462;2022-09-20T00:49:43;11.20;99.90
9808;DHT22;4943;52.550;13.462;2022-09-20T00:52:12;11.10;99.90
9808;DHT22;4943;52.550;13.462;2022-09-20T00:54:40;11.10;99.90
9808;DHT22;4943;52.550;13.462;2022-09-20T00:57:08;11.10;99.90
9808;DHT22;4943;52.550;13.462;2022-09-20T00:59:38;11.10;99.90
9808;DHT22;4943;52.550;13.462;2022-09-20T01:02:12;11.00;99.90
9808;DHT22;4943;52.550;13.462;2022-09-20T01:04:42;11.10;99.90
9808;DHT22;4943;52.550;13.462;2022-09-20T01:07:13;11.10;99.90
9808;DHT22;4943;52.550;13.462;2022-09-20T01:09:42;11.10;99.90
9808;DHT22;4943;52.550;13.462;2022-09-20T01:12:13;11.10;99.90
9808;DHT22;4943;52.550;13.462;2022-09-20T01:14:44;11.10;99.90
9808;DHT22;4943;52.550;13.462;2022-09-20T01:17:15;11.00;99.90
9808;DHT22;4943;52.550;13.462;2022-09-20T01:19:51;11.00;99.90
9808;DHT22;4943;52.550;13.462;2022-09-20T01:22:28;11.00;99.90
9808;DHT22;4943;52.550;13.462;2022-09-20T01:25:03;11.00;99.90
9808;DHT22;4943;52.550;13.462;2022-09-20T01:27:41;11.00;99.90
9808;DHT22;4943;52.550;13.462;2022-09-20T01:30:13;11.00;99.90
9808;DHT22;4943;52.550;13.462;2022-09-20T01:32:50;11.00;99.90
9808;DHT22;4943;52.550;13.462;2022-09-20T01:35:23;11.00;99.90
9808;DHT22;4943;52.550;13.462;2022-09-20T01:38:01;11.00;99.90
9808;DHT22;4943;52.550;13.462;2022-09-20T01:40:38;11.00;99.90
9808;DHT22;4943;52.550;13.462;2022-09-20T01:43:14;11.00;99.90
9808;DHT22;4943;52.550;13.462;2022-09-20T01:45:47;11.00;99.90
9808;DHT22;4943;52.550;13.462;2022-09-20T01:48:26;11.00;99.90
9808;DHT22;4943;52.550;13.462;2022-09-20T01:51:16;10.90;99.90
9808;DHT22;4943;52.550;13.462;2022-09-20T01:54:10;10.90;99.90
9808;DHT22;4943;52.550;13.462;2022-09-20T01:57:17;10.90;99.90
9808;DHT22;4943;52.550;13.462;2022-09-20T02:00:06;10.90;99.90
9808;DHT22;4943;52.550;13.462;2022-09-20T02:05:58;10.80;99.90
9808;DHT22;4943;52.550;13.462;2022-09-20T02:08:48;10.80;99.90
9808;DHT22;4943;52.550;13.462;2022-09-20T02:11:28;10.80;99.90
9808;DHT22;4943;52.550;13.462;2022-09-20T02:14:15;10.80;99.90
9808;DHT22;4943;52.550;13.462;2022-09-20T02:16:54;10.80;99.90
9808;DHT22;4943;52.550;13.462;2022-09-20T02:19:33;10.80;99.90
9808;DHT22;4943;52.550;13.462;2022-09-20T02:22:14;10.80;99.90
9808;DHT22;4943;52.550;13.462;2022-09-20T02:24:52;10.80;99.90
9808;DHT22;4943;52.550;13.462;2022-09-20T02:27:28;10.70;99.90
9808;DHT22;4943;52.550;13.462;2022-09-20T02:30:09;10.80;99.90
9808;DHT22;4943;52.550;13.462;2022-09-20T02:33:03;10.80;99.90
9808;DHT22;4943;52.550;13.462;2022-09-20T02:35:44;10.80;99.90
9808;DHT22;4943;52.550;13.462;2022-09-20T02:38:31;10.80;99.90
9808;DHT22;4943;52.550;13.462;2022-09-20T02:41:27;10.80;99.90
9808;DHT22;4943;52.550;13.462;2022-09-20T02:44:03;10.80;99.90
9808;DHT22;4943;52.550;13.462;2022-09-20T02:46:40;10.80;99.90
9808;DHT22;4943;52.550;13.462;2022-09-20T02:49:21;10.80;99.90
9808;DHT22;4943;52.550;13.462;2022-09-20T02:51:52;10.80;99.90
9808;DHT22;4943;52.550;13.462;2022-09-20T02:54:35;10.70;99.90
9808;DHT22;4943;52.550;13.462;2022-09-20T02:57:10;10.70;99.90
9808;DHT22;4943;52.550;13.462;2022-09-20T02:59:48;10.70;99.90
9808;DHT22;4943;52.550;13.462;2022-09-20T03:02:25;10.70;99.90
9808;DHT22;4943;52.550;13.462;2022-09-20T03:05:05;10.70;99.90
9808;DHT22;4943;52.550;13.462;2022-09-20T03:07:45;10.70;99.90
9808;DHT22;4943;52.550;13.462;2022-09-20T03:10:24;10.70;99.90
9808;DHT22;4943;52.550;13.462;2022-09-20T03:13:09;10.70;99.90
9808;DHT22;4943;52.550;13.462;2022-09-20T03:15:48;10.60;99.90
9808;DHT22;4943;52.550;13.462;2022-09-20T03:18:28;10.70;99.90
9808;DHT22;4943;52.550;13.462;2022-09-20T03:21:08;10.70;99.90
9808;DHT22;4943;52.550;13.462;2022-09-20T03:23:47;10.60;99.90
9808;DHT22;4943;52.550;13.462;2022-09-20T03:26:28;10.70;99.90
9808;DHT22;4943;52.550;13.462;2022-09-20T03:29:02;10.70;99.90
9808;DHT22;4943;52.550;13.462;2022-09-20T03:31:47;10.70;99.90
9808;DHT22;4943;52.550;13.462;2022-09-20T03:34:31;10.70;99.90
9808;DHT22;4943;52.550;13.462;2022-09-20T03:37:21;10.70;99.90
9808;DHT22;4943;52.550;13.462;2022-09-20T03:40:09;10.70;99.90
9808;DHT22;4943;52.550;13.462;2022-09-20T03:42:45;10.70;99.90
9808;DHT22;4943;52.550;13.462;2022-09-20T03:45:32;10.70;99.90
9808;DHT22;4943;52.550;13.462;2022-09-20T03:48:27;10.80;99.90
9808;DHT22;4943;52.550;13.462;2022-09-20T03:51:07;10.80;99.90
9808;DHT22;4943;52.550;13.462;2022-09-20T03:53:56;10.80;99.90
9808;DHT22;4943;52.550;13.462;2022-09-20T03:56:37;10.90;99.90
9808;DHT22;4943;52.550;13.462;2022-09-20T03:59:24;10.90;99.90
9808;DHT22;4943;52.550;13.462;2022-09-20T04:02:12;10.90;99.90
9808;DHT22;4943;52.550;13.462;2022-09-20T04:04:45;11.00;99.90
9808;DHT22;4943;52.550;13.462;2022-09-20T04:07:20;11.00;99.90
9808;DHT22;4943;52.550;13.462;2022-09-20T04:10:20;11.00;99.90
9808;DHT22;4943;52.550;13.462;2022-09-20T04:13:10;11.10;99.90
9808;DHT22;4943;52.550;13.462;2022-09-20T04:15:49;11.10;99.90
9808;DHT22;4943;52.550;13.462;2022-09-20T04:18:26;11.10;99.90
9808;DHT22;4943;52.550;13.462;2022-09-20T04:21:03;11.10;99.90
9808;DHT22;4943;52.550;13.462;2022-09-20T04:23:41;11.10;99.90
9808;DHT22;4943;52.550;13.462;2022-09-20T04:26:15;11.20;99.90
9808;DHT22;4943;52.550;13.462;2022-09-20T04:28:50;11.10;99.90
9808;DHT22;4943;52.550;13.462;2022-09-20T04:31:28;11.20;99.90
9808;DHT22;4943;52.550;13.462;2022-09-20T04:34:01;11.20;99.90
9808;DHT22;4943;52.550;13.462;2022-09-20T04:36:55;11.20;99.90
9808;DHT22;4943;52.550;13.462;2022-09-20T04:39:33;11.20;99.90
9808;DHT22;4943;52.550;13.462;2022-09-20T04:42:29;11.20;99.90
9808;DHT22;4943;52.550;13.462;2022-09-20T04:45:29;11.20;99.90
9808;DHT22;4943;52.550;13.462;2022-09-20T04:48:44;11.20;99.90
9808;DHT22;4943;52.550;13.462;2022-09-20T04:51:41;11.10;99.90
9808;DHT22;4943;52.550;13.462;2022-09-20T04:54:36;11.10;99.90
9808;DHT22;4943;52.550;13.462;2022-09-20T04:57:32;11.10;99.90
9808;DHT22;4943;52.550;13.462;2022-09-20T05:00:09;11.00;99.90
9808;DHT22;4943;52.550;13.462;2022-09-20T05:03:00;11.00;99.90
9808;DHT22;4943;52.550;13.462;2022-09-20T05:05:44;11.00;99.90
9808;DHT22;4943;52.550;13.462;2022-09-20T05:08:37;11.10;99.90
9808;DHT22;4943;52.550;13.462;2022-09-20T05:11:23;11.10;99.90
9808;DHT22;4943;52.550;13.462;2022-09-20T05:14:11;11.10;99.90
9808;DHT22;4943;52.550;13.462;2022-09-20T05:16:59;11.10;99.90
9808;DHT22;4943;52.550;13.462;2022-09-20T05:19:33;11.10;99.90
9808;DHT22;4943;52.550;13.462;2022-09-20T05:22:32;11.10;99.90
9808;DHT22;4943;52.550;13.462;2022-09-20T05:25:24;11.10;99.90
9808;DHT22;4943;52.550;13.462;2022-09-20T05:27:58;11.20;99.90
9808;DHT22;4943;52.550;13.462;2022-09-20T05:30:34;11.20;99.90
9808;DHT22;4943;52.550;13.462;2022-09-20T05:33:13;11.20;99.90
9808;DHT22;4943;52.550;13.462;2022-09-20T05:35:56;11.30;99.90
9808;DHT22;4943;52.550;13.462;2022-09-20T05:38:32;11.40;99.90
9808;DHT22;4943;52.550;13.462;2022-09-20T05:41:07;11.40;99.90
9808;DHT22;4943;52.550;13.462;2022-09-20T05:43:50;11.40;99.90
9808;DHT22;4943;52.550;13.462;2022-09-20T05:46:31;11.50;99.90
9808;DHT22;4943;52.550;13.462;2022-09-20T05:49:10;11.50;99.90
9808;DHT22;4943;52.550;13.462;2022-09-20T05:51:57;11.60;99.90
9808;DHT22;4943;52.550;13.462;2022-09-20T05:54:44;11.60;99.90
9808;DHT22;4943;52.550;13.462;2022-09-20T05:57:27;11.70;99.90
9808;DHT22;4943;52.550;13.462;2022-09-20T06:00:03;11.70;99.90
9808;DHT22;4943;52.550;13.462;2022-09-20T06:02:42;11.80;99.90
9808;DHT22;4943;52.550;13.462;2022-09-20T06:05:14;11.90;99.90
9808;DHT22;4943;52.550;13.462;2022-09-20T06:08:10;11.90;99.90
9808;DHT22;4943;52.550;13.462;2022-09-20T06:11:04;12.00;99.90
9808;DHT22;4943;52.550;13.462;2022-09-20T06:13:41;12.10;99.90
9808;DHT22;4943;52.550;13.462;2022-09-20T06:16:17;12.10;99.90
9808;DHT22;4943;52.550;13.462;2022-09-20T06:18:56;12.10;99.90
9808;DHT22;4943;52.550;13.462;2022-09-20T06:21:32;12.20;99.90
9808;DHT22;4943;52.550;13.462;2022-09-20T06:24:04;12.20;99.90
9808;DHT22;4943;52.550;13.462;2022-09-20T06:26:38;12.30;99.90
9808;DHT22;4943;52.550;13.462;2022-09-20T06:29:10;12.30;99.90
9808;DHT22;4943;52.550;13.462;2022-09-20T06:31:41;12.40;99.90
9808;DHT22;4943;52.550;13.462;2022-09-20T06:34:12;12.40;99.90
9808;DHT22;4943;52.550;13.462;2022-09-20T06:36:46;12.50;99.90
9808;DHT22;4943;52.550;13.462;2022-09-20T06:39:40;12.50;99.90
9808;DHT22;4943;52.550;13.462;2022-09-20T06:42:24;12.60;99.90
9808;DHT22;4943;52.550;13.462;2022-09-20T06:44:53;12.60;99.90
9808;DHT22;4943;52.550;13.462;2022-09-20T06:47:22;12.70;99.90
9808;DHT22;4943;52.550;13.462;2022-09-20T06:49:53;12.60;99.90
9808;DHT22;4943;52.550;13.462;2022-09-20T06:52:22;12.60;99.90
9808;DHT22;4943;52.550;13.462;2022-09-20T06:54:52;12.60;99.90
9808;DHT22;4943;52.550;13.462;2022-09-20T06:57:24;12.60;99.90
9808;DHT22;4943;52.550;13.462;2022-09-20T06:59:56;12.60;99.90
9808;DHT22;4943;52.550;13.462;2022-09-20T07:02:24;12.60;99.90
9808;DHT22;4943;52.550;13.462;2022-09-20T07:04:54;12.50;99.90
9808;DHT22;4943;52.550;13.462;2022-09-20T07:07:24;12.50;99.90
9808;DHT22;4943;52.550;13.462;2022-09-20T07:09:53;12.50;99.90
9808;DHT22;4943;52.550;13.462;2022-09-20T07:12:21;12.50;99.90
9808;DHT22;4943;52.550;13.462;2022-09-20T07:14:50;12.50;99.90
9808;DHT22;4943;52.550;13.462;2022-09-20T07:17:18;12.40;99.90
9808;DHT22;4943;52.550;13.462;2022-09-20T07:19:47;12.40;99.90
9808;DHT22;4943;52.550;13.462;2022-09-20T07:22:17;12.30;99.90
9808;DHT22;4943;52.550;13.462;2022-09-20T07:24:45;12.30;99.90
9808;DHT22;4943;52.550;13.462;2022-09-20T07:27:13;12.30;99.90
9808;DHT22;4943;52.550;13.462;2022-09-20T07:29:42;12.20;99.90
9808;DHT22;4943;52.550;13.462;2022-09-20T07:32:11;12.20;99.90
9808;DHT22;4943;52.550;13.462;2022-09-20T07:34:41;12.20;99.90
9808;DHT22;4943;52.550;13.462;2022-09-20T07:37:09;12.20;99.90
9808;DHT22;4943;52.550;13.462;2022-09-20T07:39:38;12.20;99.90
9808;DHT22;4943;52.550;13.462;2022-09-20T07:42:07;12.20;99.90
9808;DHT22;4943;52.550;13.462;2022-09-20T07:44:35;12.30;99.90
9808;DHT22;4943;52.550;13.462;2022-09-20T07:47:04;12.30;99.90
9808;DHT22;4943;52.550;13.462;2022-09-20T07:49:33;12.30;99.90
9808;DHT22;4943;52.550;13.462;2022-09-20T07:52:01;12.40;99.90
9808;DHT22;4943;52.550;13.462;2022-09-20T07:54:30;12.40;99.90
9808;DHT22;4943;52.550;13.462;2022-09-20T07:56:59;12.50;99.90
9808;DHT22;4943;52.550;13.462;2022-09-20T07:59:28;12.50;99.90
9808;DHT22;4943;52.550;13.462;2022-09-20T08:01:56;12.50;99.90
9808;DHT22;4943;52.550;13.462;2022-09-20T08:04:26;12.60;99.90
9808;DHT22;4943;52.550;13.462;2022-09-20T08:06:54;12.70;99.90
9808;DHT22;4943;52.550;13.462;2022-09-20T08:09:22;12.70;99.90
9808;DHT22;4943;52.550;13.462;2022-09-20T08:11:52;12.70;99.90
9808;DHT22;4943;52.550;13.462;2022-09-20T08:14:23;12.80;99.90
9808;DHT22;4943;52.550;13.462;2022-09-20T08:16:51;12.90;99.90
9808;DHT22;4943;52.550;13.462;2022-09-20T08:19:22;12.90;99.90
9808;DHT22;4943;52.550;13.462;2022-09-20T08:21:51;12.90;99.90
9808;DHT22;4943;52.550;13.462;2022-09-20T08:24:19;13.00;99.90
9808;DHT22;4943;52.550;13.462;2022-09-20T08:26:48;13.00;99.90
9808;DHT22;4943;52.550;13.462;2022-09-20T08:29:16;13.00;99.90
9808;DHT22;4943;52.550;13.462;2022-09-20T08:31:46;13.00;99.90
9808;DHT22;4943;52.550;13.462;2022-09-20T08:34:15;13.10;99.90
9808;DHT22;4943;52.550;13.462;2022-09-20T08:36:45;13.10;99.90
9808;DHT22;4943;52.550;13.462;2022-09-20T08:39:16;13.20;99.90
9808;DHT22;4943;52.550;13.462;2022-09-20T08:42:11;13.20;99.90
9808;DHT22;4943;52.550;13.462;2022-09-20T08:44:46;13.30;99.90
9808;DHT22;4943;52.550;13.462;2022-09-20T08:47:29;13.30;99.90
9808;DHT22;4943;52.550;13.462;2022-09-20T08:49:59;13.40;99.90
9808;DHT22;4943;52.550;13.462;2022-09-20T08:52:45;13.40;99.90
9808;DHT22;4943;52.550;13.462;2022-09-20T08:55:15;13.50;99.90
9808;DHT22;4943;52.550;13.462;2022-09-20T08:57:47;13.50;99.90
9808;DHT22;4943;52.550;13.462;2022-09-20T09:00:18;13.50;99.90
9808;DHT22;4943;52.550;13.462;2022-09-20T09:02:49;13.60;99.90
9808;DHT22;4943;52.550;13.462;2022-09-20T09:05:33;13.60;99.90
9808;DHT22;4943;52.550;13.462;2022-09-20T09:08:08;13.70;99.90
9808;DHT22;4943;52.550;13.462;2022-09-20T09:10:44;13.70;99.90
9808;DHT22;4943;52.550;13.462;2022-09-20T09:13:20;13.80;99.90
9808;DHT22;4943;52.550;13.462;2022-09-20T09:15:53;13.80;99.90
9808;DHT22;4943;52.550;13.462;2022-09-20T09:18:30;13.80;99.90
9808;DHT22;4943;52.550;13.462;2022-09-20T09:21:01;13.90;99.90
9808;DHT22;4943;52.550;13.462;2022-09-20T09:23:38;14.00;99.90
9808;DHT22;4943;52.550;13.462;2022-09-20T09:26:16;14.00;99.90
9808;DHT22;4943;52.550;13.462;2022-09-20T09:28:45;14.00;99.90
9808;DHT22;4943;52.550;13.462;2022-09-20T09:31:22;14.00;99.90
9808;DHT22;4943;52.550;13.462;2022-09-20T09:33:53;14.20;99.90
9808;DHT22;4943;52.550;13.462;2022-09-20T09:36:23;14.20;99.90
9808;DHT22;4943;52.550;13.462;2022-09-20T09:39:12;14.30;99.90
9808;DHT22;4943;52.550;13.462;2022-09-20T09:41:42;14.40;99.90
9808;DHT22;4943;52.550;13.462;2022-09-20T09:44:20;14.50;99.90
9808;DHT22;4943;52.550;13.462;2022-09-20T09:46:49;14.70;99.90
9808;DHT22;4943;52.550;13.462;2022-09-20T09:49:22;14.90;99.90
9808;DHT22;4943;52.550;13.462;2022-09-20T09:52:12;15.10;99.90
9808;DHT22;4943;52.550;13.462;2022-09-20T09:54:44;15.40;99.90
9808;DHT22;4943;52.550;13.462;2022-09-20T09:57:29;15.60;99.90
9808;DHT22;4943;52.550;13.462;2022-09-20T10:00:09;15.70;99.90
9808;DHT22;4943;52.550;13.462;2022-09-20T10:02:59;15.80;99.90
9808;DHT22;4943;52.550;13.462;2022-09-20T10:05:33;16.00;99.90
9808;DHT22;4943;52.550;13.462;2022-09-20T10:08:09;16.20;99.90
9808;DHT22;4943;52.550;13.462;2022-09-20T10:10:52;16.50;99.90
9808;DHT22;4943;52.550;13.462;2022-09-20T10:13:26;16.70;99.90
9808;DHT22;4943;52.550;13.462;2022-09-20T10:16:00;16.90;99.90
9808;DHT22;4943;52.550;13.462;2022-09-20T10:18:39;17.10;99.90
9808;DHT22;4943;52.550;13.462;2022-09-20T10:21:22;17.10;99.90
9808;DHT22;4943;52.550;13.462;2022-09-20T10:24:02;17.20;99.90
9808;DHT22;4943;52.550;13.462;2022-09-20T10:26:43;17.10;99.90
9808;DHT22;4943;52.550;13.462;2022-09-20T10:29:23;17.10;99.90
9808;DHT22;4943;52.550;13.462;2022-09-20T10:31:59;16.90;99.90
9808;DHT22;4943;52.550;13.462;2022-09-20T10:34:54;16.80;99.90
9808;DHT22;4943;52.550;13.462;2022-09-20T10:37:32;16.70;99.90
9808;DHT22;4943;52.550;13.462;2022-09-20T10:40:11;16.60;99.90
9808;DHT22;4943;52.550;13.462;2022-09-20T10:42:46;16.50;99.90
9808;DHT22;4943;52.550;13.462;2022-09-20T10:45:47;16.30;99.90
9808;DHT22;4943;52.550;13.462;2022-09-20T10:48:41;16.10;99.90
9808;DHT22;4943;52.550;13.462;2022-09-20T10:51:23;15.90;99.90
9808;DHT22;4943;52.550;13.462;2022-09-20T10:54:00;15.70;99.90
9808;DHT22;4943;52.550;13.462;2022-09-20T10:56:35;15.50;99.90
9808;DHT22;4943;52.550;13.462;2022-09-20T10:59:23;15.50;99.90
9808;DHT22;4943;52.550;13.462;2022-09-20T11:02:04;15.50;99.90
9808;DHT22;4943;52.550;13.462;2022-09-20T11:05:17;15.60;99.90
9808;DHT22;4943;52.550;13.462;2022-09-20T11:07:57;15.60;99.90
9808;DHT22;4943;52.550;13.462;2022-09-20T11:10:32;15.40;99.90
9808;DHT22;4943;52.550;13.462;2022-09-20T11:13:06;15.00;99.90
9808;DHT22;4943;52.550;13.462;2022-09-20T11:15:39;14.50;99.90
9808;DHT22;4943;52.550;13.462;2022-09-20T11:18:11;14.10;99.90
9808;DHT22;4943;52.550;13.462;2022-09-20T11:20:44;13.80;99.90
9808;DHT22;4943;52.550;13.462;2022-09-20T11:23:17;13.60;99.90
9808;DHT22;4943;52.550;13.462;2022-09-20T11:25:50;13.40;99.90
9808;DHT22;4943;52.550;13.462;2022-09-20T11:28:23;13.40;99.90
9808;DHT22;4943;52.550;13.462;2022-09-20T11:30:59;13.40;99.90
9808;DHT22;4943;52.550;13.462;2022-09-20T11:33:33;13.50;99.90
9808;DHT22;4943;52.550;13.462;2022-09-20T11:36:12;13.60;99.90
9808;DHT22;4943;52.550;13.462;2022-09-20T11:38:46;13.70;99.90
9808;DHT22;4943;52.550;13.462;2022-09-20T11:41:24;13.90;99.90
9808;DHT22;4943;52.550;13.462;2022-09-20T11:43:56;14.00;99.90
9808;DHT22;4943;52.550;13.462;2022-09-20T11:46:29;14.10;99.90
9808;DHT22;4943;52.550;13.462;2022-09-20T11:49:02;14.20;99.90
9808;DHT22;4943;52.550;13.462;2022-09-20T11:51:46;14.30;99.90
9808;DHT22;4943;52.550;13.462;2022-09-20T11:54:35;14.30;99.90
9808;DHT22;4943;52.550;13.462;2022-09-20T11:57:11;14.40;99.90
9808;DHT22;4943;52.550;13.462;2022-09-20T11:59:48;14.40;99.90
9808;DHT22;4943;52.550;13.462;2022-09-20T12:02:22;14.50;99.90
9808;DHT22;4943;52.550;13.462;2022-09-20T12:04:51;14.50;99.90
9808;DHT22;4943;52.550;13.462;2022-09-20T12:07:22;14.50;99.90
9808;DHT22;4943;52.550;13.462;2022-09-20T12:09:54;14.60;99.90
9808;DHT22;4943;52.550;13.462;2022-09-20T12:12:37;14.60;99.90
9808;DHT22;4943;52.550;13.462;2022-09-20T12:15:22;14.70;99.90
9808;DHT22;4943;52.550;13.462;2022-09-20T12:18:14;14.70;99.90
9808;DHT22;4943;52.550;13.462;2022-09-20T12:21:03;14.80;99.90
9808;DHT22;4943;52.550;13.462;2022-09-20T12:24:01;14.90;99.90
9808;DHT22;4943;52.550;13.462;2022-09-20T12:26:42;14.90;99.90
9808;DHT22;4943;52.550;13.462;2022-09-20T12:32:46;15.00;99.90
9808;DHT22;4943;52.550;13.462;2022-09-20T12:35:52;14.90;99.90
9808;DHT22;4943;52.550;13.462;2022-09-20T12:38:33;15.00;99.90
9808;DHT22;4943;52.550;13.462;2022-09-20T12:41:09;15.00;99.90
9808;DHT22;4943;52.550;13.462;2022-09-20T12:43:52;15.00;99.90
9808;DHT22;4943;52.550;13.462;2022-09-20T12:46:23;15.10;99.90
9808;DHT22;4943;52.550;13.462;2022-09-20T12:49:17;15.10;99.90
9808;DHT22;4943;52.550;13.462;2022-09-20T12:52:27;15.20;99.90
9808;DHT22;4943;52.550;13.462;2022-09-20T12:55:28;15.20;99.90
9808;DHT22;4943;52.550;13.462;2022-09-20T12:57:59;15.20;99.90
9808;DHT22;4943;52.550;13.462;2022-09-20T13:00:33;15.40;99.90
9808;DHT22;4943;52.550;13.462;2022-09-20T13:03:11;15.50;99.90
9808;DHT22;4943;52.550;13.462;2022-09-20T13:05:41;15.80;99.90
9808;DHT22;4943;52.550;13.462;2022-09-20T13:08:16;15.80;99.90
9808;DHT22;4943;52.550;13.462;2022-09-20T13:10:48;15.80;99.90
9808;DHT22;4943;52.550;13.462;2022-09-20T13:13:30;15.70;99.90
9808;DHT22;4943;52.550;13.462;2022-09-20T13:16:01;15.60;99.90
9808;DHT22;4943;52.550;13.462;2022-09-20T13:18:32;15.60;99.90
9808;DHT22;4943;52.550;13.462;2022-09-20T13:21:02;15.60;99.90
9808;DHT22;4943;52.550;13.462;2022-09-20T13:23:45;15.70;99.90
9808;DHT22;4943;52.550;13.462;2022-09-20T13:26:14;15.90;99.90
9808;DHT22;4943;52.550;13.462;2022-09-20T13:28:48;16.10;99.90
9808;DHT22;4943;52.550;13.462;2022-09-20T13:31:27;16.10;99.90
9808;DHT22;4943;52.550;13.462;2022-09-20T13:34:11;16.20;99.90
9808;DHT22;4943;52.550;13.462;2022-09-20T13:36:41;16.30;99.90
9808;DHT22;4943;52.550;13.462;2022-09-20T13:39:22;16.50;99.90
9808;DHT22;4943;52.550;13.462;2022-09-20T13:41:51;16.50;99.90
9808;DHT22;4943;52.550;13.462;2022-09-20T13:44:19;16.50;99.90
9808;DHT22;4943;52.550;13.462;2022-09-20T13:46:47;16.50;99.90
9808;DHT22;4943;52.550;13.462;2022-09-20T13:49:17;16.50;99.90
9808;DHT22;4943;52.550;13.462;2022-09-20T13:51:48;16.40;99.90
9808;DHT22;4943;52.550;13.462;2022-09-20T13:54:19;16.40;99.90
9808;DHT22;4943;52.550;13.462;2022-09-20T13:56:48;16.30;99.90
9808;DHT22;4943;52.550;13.462;2022-09-20T13:59:18;16.30;99.90
9808;DHT22;4943;52.550;13.462;2022-09-20T14:01:50;16.30;99.90
9808;DHT22;4943;52.550;13.462;2022-09-20T14:04:22;16.30;99.90
9808;DHT22;4943;52.550;13.462;2022-09-20T14:06:55;16.30;99.90
9808;DHT22;4943;52.550;13.462;2022-09-20T14:09:27;16.40;99.90
9808;DHT22;4943;52.550;13.462;2022-09-20T14:11:58;16.40;99.90
9808;DHT22;4943;52.550;13.462;2022-09-20T14:14:27;16.50;99.90
9808;DHT22;4943;52.550;13.462;2022-09-20T14:16:55;16.50;99.90
9808;DHT22;4943;52.550;13.462;2022-09-20T14:19:28;16.60;99.90
9808;DHT22;4943;52.550;13.462;2022-09-20T14:22:02;16.60;99.90
9808;DHT22;4943;52.550;13.462;2022-09-20T14:24:32;16.60;99.90
9808;DHT22;4943;52.550;13.462;2022-09-20T14:27:04;16.60;99.90
9808;DHT22;4943;52.550;13.462;2022-09-20T14:29:38;16.50;99.90
9808;DHT22;4943;52.550;13.462;2022-09-20T14:32:13;16.50;99.90
9808;DHT22;4943;52.550;13.462;2022-09-20T14:34:47;16.40;99.90
9808;DHT22;4943;52.550;13.462;2022-09-20T14:37:21;16.30;99.90
9808;DHT22;4943;52.550;13.462;2022-09-20T14:39:52;16.20;99.90
9808;DHT22;4943;52.550;13.462;2022-09-20T14:42:29;16.20;99.90
9808;DHT22;4943;52.550;13.462;2022-09-20T14:44:58;16.20;99.90
9808;DHT22;4943;52.550;13.462;2022-09-20T14:47:28;16.20;99.90
9808;DHT22;4943;52.550;13.462;2022-09-20T14:50:02;16.10;99.90
9808;DHT22;4943;52.550;13.462;2022-09-20T14:52:39;16.10;99.90
9808;DHT22;4943;52.550;13.462;2022-09-20T14:55:18;16.00;99.90
9808;DHT22;4943;52.550;13.462;2022-09-20T14:57:47;16.00;99.90
9808;DHT22;4943;52.550;13.462;2022-09-20T15:00:16;16.00;99.90
9808;DHT22;4943;52.550;13.462;2022-09-20T15:02:46;16.00;99.90
9808;DHT22;4943;52.550;13.462;2022-09-20T15:05:17;16.10;99.90
9808;DHT22;4943;52.550;13.462;2022-09-20T15:07:48;16.20;99.90
9808;DHT22;4943;52.550;13.462;2022-09-20T15:10:17;16.30;99.90
9808;DHT22;4943;52.550;13.462;2022-09-20T15:12:45;16.40;99.90
9808;DHT22;4943;52.550;13.462;2022-09-20T15:15:15;16.40;99.90
9808;DHT22;4943;52.550;13.462;2022-09-20T15:17:45;16.30;99.90
9808;DHT22;4943;52.550;13.462;2022-09-20T15:20:16;16.10;99.90
9808;DHT22;4943;52.550;13.462;2022-09-20T15:22:51;16.00;99.90
9808;DHT22;4943;52.550;13.462;2022-09-20T15:25:21;15.90;99.90
9808;DHT22;4943;52.550;13.462;2022-09-20T15:27:49;15.80;99.90
9808;DHT22;4943;52.550;13.462;2022-09-20T15:30:18;15.60;99.90
9808;DHT22;4943;52.550;13.462;2022-09-20T15:32:46;15.40;99.90
9808;DHT22;4943;52.550;13.462;2022-09-20T15:35:15;15.20;99.90
9808;DHT22;4943;52.550;13.462;2022-09-20T15:37:43;15.00;99.90
9808;DHT22;4943;52.550;13.462;2022-09-20T15:40:13;14.80;99.90
9808;DHT22;4943;52.550;13.462;2022-09-20T15:42:42;14.60;99.90
9808;DHT22;4943;52.550;13.462;2022-09-20T15:45:12;14.40;99.90
9808;DHT22;4943;52.550;13.462;2022-09-20T15:47:40;14.30;99.90
9808;DHT22;4943;52.550;13.462;2022-09-20T15:50:09;14.30;99.90
9808;DHT22;4943;52.550;13.462;2022-09-20T15:52:38;14.30;99.90
9808;DHT22;4943;52.550;13.462;2022-09-20T15:55:07;14.20;99.90
9808;DHT22;4943;52.550;13.462;2022-09-20T15:57:37;14.20;99.90
9808;DHT22;4943;52.550;13.462;2022-09-20T16:00:08;14.20;99.90
9808;DHT22;4943;52.550;13.462;2022-09-20T16:02:36;14.20;99.90
9808;DHT22;4943;52.550;13.462;2022-09-20T16:05:05;14.20;99.90
9808;DHT22;4943;52.550;13.462;2022-09-20T16:07:35;14.20;99.90
9808;DHT22;4943;52.550;13.462;2022-09-20T16:10:04;14.20;99.90
9808;DHT22;4943;52.550;13.462;2022-09-20T16:12:32;14.20;99.90
9808;DHT22;4943;52.550;13.462;2022-09-20T16:15:02;14.20;99.90
9808;DHT22;4943;52.550;13.462;2022-09-20T16:17:30;14.20;99.90
9808;DHT22;4943;52.550;13.462;2022-09-20T16:20:16;14.20;99.90
9808;DHT22;4943;52.550;13.462;2022-09-20T16:22:44;14.10;99.90
9808;DHT22;4943;52.550;13.462;2022-09-20T16:25:12;14.10;99.90
9808;DHT22;4943;52.550;13.462;2022-09-20T16:27:40;14.00;99.90
9808;DHT22;4943;52.550;13.462;2022-09-20T16:30:11;14.00;99.90
9808;DHT22;4943;52.550;13.462;2022-09-20T16:32:39;14.00;99.90
9808;DHT22;4943;52.550;13.462;2022-09-20T16:35:08;14.00;99.90
9808;DHT22;4943;52.550;13.462;2022-09-20T16:37:37;14.00;99.90
9808;DHT22;4943;52.550;13.462;2022-09-20T16:40:06;14.00;99.90
9808;DHT22;4943;52.550;13.462;2022-09-20T16:42:36;14.00;99.90
9808;DHT22;4943;52.550;13.462;2022-09-20T16:45:05;14.00;99.90
9808;DHT22;4943;52.550;13.462;2022-09-20T16:47:35;14.00;99.90
9808;DHT22;4943;52.550;13.462;2022-09-20T16:50:07;14.00;99.90